sensor_id;sensor_type;location;lat;lon;timestamp;temperature;humidity
33717;DHT22;20046;50.746;7.072;2023-04-25T00:00:13;7.80;99.90
33717;DHT22;20046;50.746;7.072;2023-04-25T00:02:39;7.80;99.90
33717;DHT22;20046;50.746;7.072;2023-04-25T00:05:05;7.80;99.90
33717;DHT22;20046;50.746;7.072;2023-04-25T00:07:30;7.80;99.90
33717;DHT22;20046;50.746;7.072;2023-04-25T00:09:57;7.80;99.90
33717;DHT22;20046;50.746;7.072;2023-04-25T00:12:23;7.80;99.90
33717;DHT22;20046;50.746;7.072;2023-04-25T00:14:48;7.70;99.90
33717;DHT22;20046;50.746;7.072;2023-04-25T00:17:15;7.70;99.90
33717;DHT22;20046;50.746;7.072;2023-04-25T00:19:41;7.60;99.90
33717;DHT22;20046;50.746;7.072;2023-04-25T00:22:07;7.50;99.90
33717;DHT22;20046;50.746;7.072;2023-04-25T00:24:32;7.50;99.90
33717;DHT22;20046;50.746;7.072;2023-04-25T00:26:58;7.50;99.90
33717;DHT22;20046;50.746;7.072;2023-04-25T00:29:23;7.40;99.90
33717;DHT22;20046;50.746;7.072;2023-04-25T00:31:49;7.30;99.90
33717;DHT22;20046;50.746;7.072;2023-04-25T00:34:15;7.30;99.90
33717;DHT22;20046;50.746;7.072;2023-04-25T00:36:40;7.30;99.90
33717;DHT22;20046;50.746;7.072;2023-04-25T00:39:05;7.20;99.90
33717;DHT22;20046;50.746;7.072;2023-04-25T00:41:31;7.20;99.90
33717;DHT22;20046;50.746;7.072;2023-04-25T00:43:57;7.10;99.90
33717;DHT22;20046;50.746;7.072;2023-04-25T00:46:24;7.10;99.90
33717;DHT22;20046;50.746;7.072;2023-04-25T00:48:50;7.00;99.90
33717;DHT22;20046;50.746;7.072;2023-04-25T00:51:21;7.00;99.90
33717;DHT22;20046;50.746;7.072;2023-04-25T00:53:47;6.90;99.90
33717;DHT22;20046;50.746;7.072;2023-04-25T00:56:14;6.90;99.90
33717;DHT22;20046;50.746;7.072;2023-04-25T00:58:40;6.90;99.90
33717;DHT22;20046;50.746;7.072;2023-04-25T01:01:06;6.80;99.90
33717;DHT22;20046;50.746;7.072;2023-04-25T01:03:34;6.80;99.90
33717;DHT22;20046;50.746;7.072;2023-04-25T01:06:09;6.70;99.90
33717;DHT22;20046;50.746;7.072;2023-04-25T01:08:35;6.70;99.90
33717;DHT22;20046;50.746;7.072;2023-04-25T01:11:01;6.60;99.90
33717;DHT22;20046;50.746;7.072;2023-04-25T01:13:26;6.60;99.90
33717;DHT22;20046;50.746;7.072;2023-04-25T01:15:52;6.50;99.90
33717;DHT22;20046;50.746;7.072;2023-04-25T01:18:18;6.40;99.90
33717;DHT22;20046;50.746;7.072;2023-04-25T01:20:44;6.30;99.90
33717;DHT22;20046;50.746;7.072;2023-04-25T01:23:11;6.30;99.90
33717;DHT22;20046;50.746;7.072;2023-04-25T01:25:36;6.20;99.90
33717;DHT22;20046;50.746;7.072;2023-04-25T01:28:02;6.20;99.90
33717;DHT22;20046;50.746;7.072;2023-04-25T01:30:28;6.20;99.90
33717;DHT22;20046;50.746;7.072;2023-04-25T01:32:55;6.10;99.90
33717;DHT22;20046;50.746;7.072;2023-04-25T01:35:21;6.10;99.90
33717;DHT22;20046;50.746;7.072;2023-04-25T01:37:47;6.00;99.90
33717;DHT22;20046;50.746;7.072;2023-04-25T01:40:12;6.00;99.90
33717;DHT22;20046;50.746;7.072;2023-04-25T01:42:39;5.90;99.90
33717;DHT22;20046;50.746;7.072;2023-04-25T01:45:05;5.90;99.90
33717;DHT22;20046;50.746;7.072;2023-04-25T01:47:31;5.90;99.90
33717;DHT22;20046;50.746;7.072;2023-04-25T01:49:57;5.90;99.90
33717;DHT22;20046;50.746;7.072;2023-04-25T01:52:22;5.80;99.90
33717;DHT22;20046;50.746;7.072;2023-04-25T01:54:48;5.80;99.90
33717;DHT22;20046;50.746;7.072;2023-04-25T01:57:14;5.80;99.90
33717;DHT22;20046;50.746;7.072;2023-04-25T01:59:39;5.70;99.90
33717;DHT22;20046;50.746;7.072;2023-04-25T02:02:05;5.70;99.90
33717;DHT22;20046;50.746;7.072;2023-04-25T02:04:31;5.60;99.90
33717;DHT22;20046;50.746;7.072;2023-04-25T02:06:57;5.50;99.90
33717;DHT22;20046;50.746;7.072;2023-04-25T02:09:23;5.50;99.90
33717;DHT22;20046;50.746;7.072;2023-04-25T02:11:48;5.40;99.90
33717;DHT22;20046;50.746;7.072;2023-04-25T02:14:14;5.40;99.90
33717;DHT22;20046;50.746;7.072;2023-04-25T02:16:39;5.30;99.90
33717;DHT22;20046;50.746;7.072;2023-04-25T02:19:05;5.30;99.90
33717;DHT22;20046;50.746;7.072;2023-04-25T02:21:31;5.30;99.90
33717;DHT22;20046;50.746;7.072;2023-04-25T02:23:57;5.30;99.90
33717;DHT22;20046;50.746;7.072;2023-04-25T02:26:22;5.30;99.90
33717;DHT22;20046;50.746;7.072;2023-04-25T02:28:49;5.30;99.90
33717;DHT22;20046;50.746;7.072;2023-04-25T02:31:15;5.20;99.90
33717;DHT22;20046;50.746;7.072;2023-04-25T02:33:40;5.20;99.90
33717;DHT22;20046;50.746;7.072;2023-04-25T02:36:06;5.20;99.90
33717;DHT22;20046;50.746;7.072;2023-04-25T02:38:31;5.20;99.90
33717;DHT22;20046;50.746;7.072;2023-04-25T02:40:57;5.20;99.90
33717;DHT22;20046;50.746;7.072;2023-04-25T02:43:22;5.20;99.90
33717;DHT22;20046;50.746;7.072;2023-04-25T02:45:48;5.20;99.90
33717;DHT22;20046;50.746;7.072;2023-04-25T02:48:14;5.20;99.90
33717;DHT22;20046;50.746;7.072;2023-04-25T02:50:39;5.20;99.90
33717;DHT22;20046;50.746;7.072;2023-04-25T02:53:05;5.20;99.90
33717;DHT22;20046;50.746;7.072;2023-04-25T02:55:30;5.20;99.90
33717;DHT22;20046;50.746;7.072;2023-04-25T02:57:56;5.20;99.90
33717;DHT22;20046;50.746;7.072;2023-04-25T03:00:21;5.20;99.90
33717;DHT22;20046;50.746;7.072;2023-04-25T03:02:47;5.20;99.90
33717;DHT22;20046;50.746;7.072;2023-04-25T03:05:13;5.20;99.90
33717;DHT22;20046;50.746;7.072;2023-04-25T03:07:38;5.30;99.90
33717;DHT22;20046;50.746;7.072;2023-04-25T03:10:05;5.30;99.90
33717;DHT22;20046;50.746;7.072;2023-04-25T03:12:31;5.30;99.90
33717;DHT22;20046;50.746;7.072;2023-04-25T03:14:57;5.30;99.90
33717;DHT22;20046;50.746;7.072;2023-04-25T03:17:22;5.30;99.90
33717;DHT22;20046;50.746;7.072;2023-04-25T03:19:48;5.30;99.90
33717;DHT22;20046;50.746;7.072;2023-04-25T03:22:13;5.30;99.90
33717;DHT22;20046;50.746;7.072;2023-04-25T03:24:38;5.30;99.90
33717;DHT22;20046;50.746;7.072;2023-04-25T03:27:04;5.30;99.90
33717;DHT22;20046;50.746;7.072;2023-04-25T03:29:30;5.30;99.90
33717;DHT22;20046;50.746;7.072;2023-04-25T03:31:55;5.30;99.90
33717;DHT22;20046;50.746;7.072;2023-04-25T03:34:20;5.30;99.90
33717;DHT22;20046;50.746;7.072;2023-04-25T03:36:49;5.20;99.90
33717;DHT22;20046;50.746;7.072;2023-04-25T03:39:15;5.20;99.90
33717;DHT22;20046;50.746;7.072;2023-04-25T03:41:41;5.20;99.90
33717;DHT22;20046;50.746;7.072;2023-04-25T03:44:06;5.30;99.90
33717;DHT22;20046;50.746;7.072;2023-04-25T03:46:32;5.30;99.90
33717;DHT22;20046;50.746;7.072;2023-04-25T03:48:57;5.30;99.90
33717;DHT22;20046;50.746;7.072;2023-04-25T03:51:22;5.30;99.90
33717;DHT22;20046;50.746;7.072;2023-04-25T03:53:49;5.30;99.90
33717;DHT22;20046;50.746;7.072;2023-04-25T03:56:15;5.40;99.90
33717;DHT22;20046;50.746;7.072;2023-04-25T03:58:40;5.40;99.90
33717;DHT22;20046;50.746;7.072;2023-04-25T04:01:06;5.40;99.90
33717;DHT22;20046;50.746;7.072;2023-04-25T04:03:33;5.50;99.90
33717;DHT22;20046;50.746;7.072;2023-04-25T04:05:59;5.50;99.90
33717;DHT22;20046;50.746;7.072;2023-04-25T04:08:25;5.50;99.90
33717;DHT22;20046;50.746;7.072;2023-04-25T04:10:50;5.50;99.90
33717;DHT22;20046;50.746;7.072;2023-04-25T04:13:16;5.50;99.90
33717;DHT22;20046;50.746;7.072;2023-04-25T04:15:41;5.60;99.90
33717;DHT22;20046;50.746;7.072;2023-04-25T04:18:07;5.60;99.90
33717;DHT22;20046;50.746;7.072;2023-04-25T04:20:32;5.70;99.90
33717;DHT22;20046;50.746;7.072;2023-04-25T04:22:58;5.70;99.90
33717;DHT22;20046;50.746;7.072;2023-04-25T04:25:23;5.70;99.90
33717;DHT22;20046;50.746;7.072;2023-04-25T04:27:50;5.80;99.90
33717;DHT22;20046;50.746;7.072;2023-04-25T04:30:21;5.80;99.90
33717;DHT22;20046;50.746;7.072;2023-04-25T04:32:46;5.90;99.90
33717;DHT22;20046;50.746;7.072;2023-04-25T04:35:13;5.90;99.90
33717;DHT22;20046;50.746;7.072;2023-04-25T04:37:39;6.00;99.90
33717;DHT22;20046;50.746;7.072;2023-04-25T04:40:05;6.00;99.90
33717;DHT22;20046;50.746;7.072;2023-04-25T04:42:31;6.00;99.90
33717;DHT22;20046;50.746;7.072;2023-04-25T04:44:57;6.10;99.90
33717;DHT22;20046;50.746;7.072;2023-04-25T04:47:24;6.10;99.90
33717;DHT22;20046;50.746;7.072;2023-04-25T04:49:50;6.20;99.90
33717;DHT22;20046;50.746;7.072;2023-04-25T04:52:16;6.20;99.90
33717;DHT22;20046;50.746;7.072;2023-04-25T04:54:41;6.20;99.90
33717;DHT22;20046;50.746;7.072;2023-04-25T04:57:07;6.20;99.90
33717;DHT22;20046;50.746;7.072;2023-04-25T04:59:32;6.20;99.90
33717;DHT22;20046;50.746;7.072;2023-04-25T05:01:58;6.30;99.90
33717;DHT22;20046;50.746;7.072;2023-04-25T05:04:23;6.30;99.90
33717;DHT22;20046;50.746;7.072;2023-04-25T05:06:49;6.30;99.90
33717;DHT22;20046;50.746;7.072;2023-04-25T05:09:15;6.40;99.90
33717;DHT22;20046;50.746;7.072;2023-04-25T05:11:40;6.40;99.90
33717;DHT22;20046;50.746;7.072;2023-04-25T05:14:06;6.50;99.90
33717;DHT22;20046;50.746;7.072;2023-04-25T05:16:31;6.50;99.90
33717;DHT22;20046;50.746;7.072;2023-04-25T05:18:56;6.60;99.90
33717;DHT22;20046;50.746;7.072;2023-04-25T05:21:22;6.70;99.90
33717;DHT22;20046;50.746;7.072;2023-04-25T05:23:47;6.70;99.90
33717;DHT22;20046;50.746;7.072;2023-04-25T05:26:13;6.80;99.90
33717;DHT22;20046;50.746;7.072;2023-04-25T05:28:41;6.90;99.90
33717;DHT22;20046;50.746;7.072;2023-04-25T05:31:07;7.00;99.90
33717;DHT22;20046;50.746;7.072;2023-04-25T05:33:35;7.00;99.90
33717;DHT22;20046;50.746;7.072;2023-04-25T05:36:00;7.00;99.90
33717;DHT22;20046;50.746;7.072;2023-04-25T05:38:26;7.10;99.90
33717;DHT22;20046;50.746;7.072;2023-04-25T05:40:51;7.10;99.90
33717;DHT22;20046;50.746;7.072;2023-04-25T05:43:17;7.20;99.90
33717;DHT22;20046;50.746;7.072;2023-04-25T05:45:42;7.20;99.90
33717;DHT22;20046;50.746;7.072;2023-04-25T05:48:08;7.20;99.90
33717;DHT22;20046;50.746;7.072;2023-04-25T05:50:33;7.20;99.90
33717;DHT22;20046;50.746;7.072;2023-04-25T05:52:59;7.30;99.90
33717;DHT22;20046;50.746;7.072;2023-04-25T05:55:24;7.30;99.90
33717;DHT22;20046;50.746;7.072;2023-04-25T05:57:50;7.30;99.90
33717;DHT22;20046;50.746;7.072;2023-04-25T06:00:15;7.30;99.90
33717;DHT22;20046;50.746;7.072;2023-04-25T06:02:41;7.30;99.90
33717;DHT22;20046;50.746;7.072;2023-04-25T06:05:07;7.40;99.90
33717;DHT22;20046;50.746;7.072;2023-04-25T06:07:33;7.50;99.90
33717;DHT22;20046;50.746;7.072;2023-04-25T06:09:58;7.60;99.90
33717;DHT22;20046;50.746;7.072;2023-04-25T06:12:26;7.70;99.90
33717;DHT22;20046;50.746;7.072;2023-04-25T06:14:51;7.80;99.90
33717;DHT22;20046;50.746;7.072;2023-04-25T06:17:17;7.90;99.90
33717;DHT22;20046;50.746;7.072;2023-04-25T06:19:42;8.00;99.90
33717;DHT22;20046;50.746;7.072;2023-04-25T06:22:08;8.00;99.90
33717;DHT22;20046;50.746;7.072;2023-04-25T06:24:33;8.10;99.90
33717;DHT22;20046;50.746;7.072;2023-04-25T06:26:59;8.20;99.90
33717;DHT22;20046;50.746;7.072;2023-04-25T06:29:25;8.20;99.90
33717;DHT22;20046;50.746;7.072;2023-04-25T06:31:50;8.30;99.90
33717;DHT22;20046;50.746;7.072;2023-04-25T06:34:16;8.40;99.90
33717;DHT22;20046;50.746;7.072;2023-04-25T06:36:42;8.60;99.90
33717;DHT22;20046;50.746;7.072;2023-04-25T06:39:09;8.60;99.90
33717;DHT22;20046;50.746;7.072;2023-04-25T06:41:34;8.50;99.90
33717;DHT22;20046;50.746;7.072;2023-04-25T06:44:00;8.50;99.90
33717;DHT22;20046;50.746;7.072;2023-04-25T06:46:26;8.40;99.90
33717;DHT22;20046;50.746;7.072;2023-04-25T06:48:51;8.40;99.90
33717;DHT22;20046;50.746;7.072;2023-04-25T06:51:17;8.50;99.90
33717;DHT22;20046;50.746;7.072;2023-04-25T06:53:42;8.60;99.90
33717;DHT22;20046;50.746;7.072;2023-04-25T06:56:08;8.90;99.90
33717;DHT22;20046;50.746;7.072;2023-04-25T06:58:33;9.30;99.90
33717;DHT22;20046;50.746;7.072;2023-04-25T07:00:59;9.60;99.90
33717;DHT22;20046;50.746;7.072;2023-04-25T07:03:24;9.80;99.90
33717;DHT22;20046;50.746;7.072;2023-04-25T07:05:50;9.90;99.90
33717;DHT22;20046;50.746;7.072;2023-04-25T07:08:16;10.10;99.90
33717;DHT22;20046;50.746;7.072;2023-04-25T07:10:41;10.20;99.90
33717;DHT22;20046;50.746;7.072;2023-04-25T07:13:07;10.10;99.90
33717;DHT22;20046;50.746;7.072;2023-04-25T07:15:32;10.00;99.90
33717;DHT22;20046;50.746;7.072;2023-04-25T07:17:58;9.70;99.90
33717;DHT22;20046;50.746;7.072;2023-04-25T07:20:24;9.60;99.90
33717;DHT22;20046;50.746;7.072;2023-04-25T07:22:50;9.50;99.90
33717;DHT22;20046;50.746;7.072;2023-04-25T07:25:16;9.40;99.90
33717;DHT22;20046;50.746;7.072;2023-04-25T07:27:41;9.90;99.90
33717;DHT22;20046;50.746;7.072;2023-04-25T07:30:07;10.40;99.90
33717;DHT22;20046;50.746;7.072;2023-04-25T07:32:32;10.70;99.90
33717;DHT22;20046;50.746;7.072;2023-04-25T07:34:58;10.70;99.90
33717;DHT22;20046;50.746;7.072;2023-04-25T07:37:23;10.50;99.90
33717;DHT22;20046;50.746;7.072;2023-04-25T07:39:49;10.30;99.90
33717;DHT22;20046;50.746;7.072;2023-04-25T07:42:15;10.30;99.90
33717;DHT22;20046;50.746;7.072;2023-04-25T07:44:40;10.40;99.90
33717;DHT22;20046;50.746;7.072;2023-04-25T07:47:07;10.60;99.90
33717;DHT22;20046;50.746;7.072;2023-04-25T07:49:33;10.60;99.90
33717;DHT22;20046;50.746;7.072;2023-04-25T07:52:00;10.70;99.90
33717;DHT22;20046;50.746;7.072;2023-04-25T07:54:26;11.00;99.90
33717;DHT22;20046;50.746;7.072;2023-04-25T07:56:51;11.60;99.90
33717;DHT22;20046;50.746;7.072;2023-04-25T07:59:17;12.00;99.90
33717;DHT22;20046;50.746;7.072;2023-04-25T08:01:42;12.00;99.90
33717;DHT22;20046;50.746;7.072;2023-04-25T08:04:07;11.90;99.90
33717;DHT22;20046;50.746;7.072;2023-04-25T08:06:33;11.70;99.90
33717;DHT22;20046;50.746;7.072;2023-04-25T08:08:58;11.50;99.90
33717;DHT22;20046;50.746;7.072;2023-04-25T08:11:24;11.50;99.90
33717;DHT22;20046;50.746;7.072;2023-04-25T08:13:50;11.80;99.90
33717;DHT22;20046;50.746;7.072;2023-04-25T08:16:15;11.80;99.90
33717;DHT22;20046;50.746;7.072;2023-04-25T08:18:41;11.80;99.90
33717;DHT22;20046;50.746;7.072;2023-04-25T08:21:06;11.60;99.90
33717;DHT22;20046;50.746;7.072;2023-04-25T08:23:34;11.50;99.90
33717;DHT22;20046;50.746;7.072;2023-04-25T08:25:59;11.30;99.90
33717;DHT22;20046;50.746;7.072;2023-04-25T08:28:25;11.10;99.90
33717;DHT22;20046;50.746;7.072;2023-04-25T08:30:51;11.00;99.90
33717;DHT22;20046;50.746;7.072;2023-04-25T08:33:16;10.80;99.90
33717;DHT22;20046;50.746;7.072;2023-04-25T08:35:42;10.60;99.90
33717;DHT22;20046;50.746;7.072;2023-04-25T08:38:07;10.50;99.90
33717;DHT22;20046;50.746;7.072;2023-04-25T08:40:34;10.30;99.90
33717;DHT22;20046;50.746;7.072;2023-04-25T08:43:02;10.20;99.90
33717;DHT22;20046;50.746;7.072;2023-04-25T08:45:29;10.10;99.90
33717;DHT22;20046;50.746;7.072;2023-04-25T08:47:56;10.00;99.90
33717;DHT22;20046;50.746;7.072;2023-04-25T08:50:22;9.90;99.90
33717;DHT22;20046;50.746;7.072;2023-04-25T08:52:48;9.90;99.90
33717;DHT22;20046;50.746;7.072;2023-04-25T08:55:15;10.10;99.90
33717;DHT22;20046;50.746;7.072;2023-04-25T08:57:41;10.30;99.90
33717;DHT22;20046;50.746;7.072;2023-04-25T09:00:10;10.60;99.90
33717;DHT22;20046;50.746;7.072;2023-04-25T09:02:38;11.00;99.90
33717;DHT22;20046;50.746;7.072;2023-04-25T09:05:04;11.60;99.90
33717;DHT22;20046;50.746;7.072;2023-04-25T09:07:30;12.20;99.90
33717;DHT22;20046;50.746;7.072;2023-04-25T09:09:55;13.60;99.90
33717;DHT22;20046;50.746;7.072;2023-04-25T09:12:21;14.70;99.90
33717;DHT22;20046;50.746;7.072;2023-04-25T09:17:29;15.00;98.60
33717;DHT22;20046;50.746;7.072;2023-04-25T09:19:54;14.90;98.60
33717;DHT22;20046;50.746;7.072;2023-04-25T09:22:20;14.90;98.60
33717;DHT22;20046;50.746;7.072;2023-04-25T09:24:47;14.40;97.00
33717;DHT22;20046;50.746;7.072;2023-04-25T09:27:20;14.20;98.50
33717;DHT22;20046;50.746;7.072;2023-04-25T09:29:48;13.90;98.20
33717;DHT22;20046;50.746;7.072;2023-04-25T09:32:20;13.60;98.30
33717;DHT22;20046;50.746;7.072;2023-04-25T09:34:47;13.30;98.60
33717;DHT22;20046;50.746;7.072;2023-04-25T09:39:46;12.50;97.30
33717;DHT22;20046;50.746;7.072;2023-04-25T09:42:14;12.10;97.40
33717;DHT22;20046;50.746;7.072;2023-04-25T09:44:44;11.70;97.70
33717;DHT22;20046;50.746;7.072;2023-04-25T09:47:11;11.60;98.70
33717;DHT22;20046;50.746;7.072;2023-04-25T09:49:41;11.40;97.30
33717;DHT22;20046;50.746;7.072;2023-04-25T09:52:07;11.40;97.60
33717;DHT22;20046;50.746;7.072;2023-04-25T09:54:33;11.50;97.80
33717;DHT22;20046;50.746;7.072;2023-04-25T09:57:00;11.90;98.50
33717;DHT22;20046;50.746;7.072;2023-04-25T09:59:29;12.80;97.20
33717;DHT22;20046;50.746;7.072;2023-04-25T10:01:56;13.40;97.10
33717;DHT22;20046;50.746;7.072;2023-04-25T10:04:24;13.70;96.40
33717;DHT22;20046;50.746;7.072;2023-04-25T10:06:51;13.80;95.90
33717;DHT22;20046;50.746;7.072;2023-04-25T10:09:19;13.80;95.50
33717;DHT22;20046;50.746;7.072;2023-04-25T10:11:46;13.90;95.80
33717;DHT22;20046;50.746;7.072;2023-04-25T10:14:13;13.90;95.10
33717;DHT22;20046;50.746;7.072;2023-04-25T10:16:39;13.60;94.60
33717;DHT22;20046;50.746;7.072;2023-04-25T10:19:05;13.20;94.40
33717;DHT22;20046;50.746;7.072;2023-04-25T10:21:31;12.90;94.80
33717;DHT22;20046;50.746;7.072;2023-04-25T10:23:57;12.60;95.50
33717;DHT22;20046;50.746;7.072;2023-04-25T10:26:23;12.30;95.90
33717;DHT22;20046;50.746;7.072;2023-04-25T10:31:21;12.30;96.90
33717;DHT22;20046;50.746;7.072;2023-04-25T10:33:46;12.50;96.30
33717;DHT22;20046;50.746;7.072;2023-04-25T10:36:14;12.80;96.90
33717;DHT22;20046;50.746;7.072;2023-04-25T10:38:41;13.00;96.30
33717;DHT22;20046;50.746;7.072;2023-04-25T10:41:08;12.80;96.30
33717;DHT22;20046;50.746;7.072;2023-04-25T10:43:38;12.80;97.10
33717;DHT22;20046;50.746;7.072;2023-04-25T10:48:40;12.80;97.00
33717;DHT22;20046;50.746;7.072;2023-04-25T10:53:34;12.20;97.50
33717;DHT22;20046;50.746;7.072;2023-04-25T10:56:00;11.90;97.50
33717;DHT22;20046;50.746;7.072;2023-04-25T10:58:25;11.60;98.10
33717;DHT22;20046;50.746;7.072;2023-04-25T11:00:51;11.30;97.70
33717;DHT22;20046;50.746;7.072;2023-04-25T11:03:17;11.10;98.00
33717;DHT22;20046;50.746;7.072;2023-04-25T11:05:42;11.00;98.30
33717;DHT22;20046;50.746;7.072;2023-04-25T11:08:12;10.80;98.50
33717;DHT22;20046;50.746;7.072;2023-04-25T11:10:39;10.90;98.60
33717;DHT22;20046;50.746;7.072;2023-04-25T11:13:05;11.00;98.70
33717;DHT22;20046;50.746;7.072;2023-04-25T11:15:30;11.40;99.20
33717;DHT22;20046;50.746;7.072;2023-04-25T11:17:56;11.90;99.20
33717;DHT22;20046;50.746;7.072;2023-04-25T11:20:21;12.70;98.70
33717;DHT22;20046;50.746;7.072;2023-04-25T11:22:47;13.70;97.30
33717;DHT22;20046;50.746;7.072;2023-04-25T11:25:14;14.40;96.20
33717;DHT22;20046;50.746;7.072;2023-04-25T11:27:56;14.50;96.20
33717;DHT22;20046;50.746;7.072;2023-04-25T11:30:22;14.60;96.20
33717;DHT22;20046;50.746;7.072;2023-04-25T11:32:48;15.50;94.80
33717;DHT22;20046;50.746;7.072;2023-04-25T11:35:15;15.20;93.90
33717;DHT22;20046;50.746;7.072;2023-04-25T11:37:41;14.70;94.30
33717;DHT22;20046;50.746;7.072;2023-04-25T11:40:07;14.10;94.60
33717;DHT22;20046;50.746;7.072;2023-04-25T11:42:37;13.40;95.30
33717;DHT22;20046;50.746;7.072;2023-04-25T11:45:04;12.70;95.80
33717;DHT22;20046;50.746;7.072;2023-04-25T11:47:30;12.20;96.70
33717;DHT22;20046;50.746;7.072;2023-04-25T11:49:59;11.70;97.20
33717;DHT22;20046;50.746;7.072;2023-04-25T11:52:42;11.40;97.80
33717;DHT22;20046;50.746;7.072;2023-04-25T11:55:09;11.10;98.50
33717;DHT22;20046;50.746;7.072;2023-04-25T11:57:36;10.90;99.80
33717;DHT22;20046;50.746;7.072;2023-04-25T12:00:35;10.80;99.90
33717;DHT22;20046;50.746;7.072;2023-04-25T12:02:55;10.70;99.50
33717;DHT22;20046;50.746;7.072;2023-04-25T12:05:23;10.60;99.50
33717;DHT22;20046;50.746;7.072;2023-04-25T12:07:49;10.60;99.70
33717;DHT22;20046;50.746;7.072;2023-04-25T12:10:15;10.70;99.10
33717;DHT22;20046;50.746;7.072;2023-04-25T12:12:42;10.80;97.70
33717;DHT22;20046;50.746;7.072;2023-04-25T12:15:11;10.90;97.90
33717;DHT22;20046;50.746;7.072;2023-04-25T12:17:38;11.10;97.60
33717;DHT22;20046;50.746;7.072;2023-04-25T12:20:07;11.40;98.70
33717;DHT22;20046;50.746;7.072;2023-04-25T12:22:33;11.70;98.00
33717;DHT22;20046;50.746;7.072;2023-04-25T12:24:59;12.20;96.70
33717;DHT22;20046;50.746;7.072;2023-04-25T12:27:25;12.50;96.70
33717;DHT22;20046;50.746;7.072;2023-04-25T12:29:54;12.70;96.80
33717;DHT22;20046;50.746;7.072;2023-04-25T12:32:21;12.70;97.10
33717;DHT22;20046;50.746;7.072;2023-04-25T12:34:46;12.70;96.70
33717;DHT22;20046;50.746;7.072;2023-04-25T12:37:12;12.60;96.70
33717;DHT22;20046;50.746;7.072;2023-04-25T12:39:38;12.40;95.70
33717;DHT22;20046;50.746;7.072;2023-04-25T12:42:03;12.30;96.60
33717;DHT22;20046;50.746;7.072;2023-04-25T12:44:29;12.30;96.50
33717;DHT22;20046;50.746;7.072;2023-04-25T12:46:54;12.70;96.90
33717;DHT22;20046;50.746;7.072;2023-04-25T12:49:20;15.00;96.20
33717;DHT22;20046;50.746;7.072;2023-04-25T12:51:46;18.20;92.50
33717;DHT22;20046;50.746;7.072;2023-04-25T12:54:12;21.10;89.10
33717;DHT22;20046;50.746;7.072;2023-04-25T12:56:37;23.50;82.20
33717;DHT22;20046;50.746;7.072;2023-04-25T12:59:03;24.80;67.90
33717;DHT22;20046;50.746;7.072;2023-04-25T13:01:28;24.80;63.50
33717;DHT22;20046;50.746;7.072;2023-04-25T13:03:54;23.90;61.10
33717;DHT22;20046;50.746;7.072;2023-04-25T13:06:20;22.00;63.20
33717;DHT22;20046;50.746;7.072;2023-04-25T13:08:45;20.20;66.30
33717;DHT22;20046;50.746;7.072;2023-04-25T13:11:11;20.70;67.80
33717;DHT22;20046;50.746;7.072;2023-04-25T13:13:37;22.80;63.10
33717;DHT22;20046;50.746;7.072;2023-04-25T13:16:03;22.80;59.50
33717;DHT22;20046;50.746;7.072;2023-04-25T13:18:29;21.20;60.90
33717;DHT22;20046;50.746;7.072;2023-04-25T13:20:55;19.50;62.40
33717;DHT22;20046;50.746;7.072;2023-04-25T13:23:21;18.10;66.20
33717;DHT22;20046;50.746;7.072;2023-04-25T13:25:46;16.90;68.70
33717;DHT22;20046;50.746;7.072;2023-04-25T13:28:12;15.70;71.40
33717;DHT22;20046;50.746;7.072;2023-04-25T13:30:38;14.90;74.10
33717;DHT22;20046;50.746;7.072;2023-04-25T13:33:03;14.10;74.80
33717;DHT22;20046;50.746;7.072;2023-04-25T13:35:29;13.60;77.20
33717;DHT22;20046;50.746;7.072;2023-04-25T13:37:55;13.10;78.40
33717;DHT22;20046;50.746;7.072;2023-04-25T13:40:21;12.70;80.80
33717;DHT22;20046;50.746;7.072;2023-04-25T13:42:46;12.40;82.40
33717;DHT22;20046;50.746;7.072;2023-04-25T13:45:12;12.10;83.90
33717;DHT22;20046;50.746;7.072;2023-04-25T13:47:37;11.90;86.40
33717;DHT22;20046;50.746;7.072;2023-04-25T13:50:03;11.70;86.60
33717;DHT22;20046;50.746;7.072;2023-04-25T13:52:30;11.50;88.10
33717;DHT22;20046;50.746;7.072;2023-04-25T13:54:56;11.40;89.10
33717;DHT22;20046;50.746;7.072;2023-04-25T13:57:21;11.30;90.40
33717;DHT22;20046;50.746;7.072;2023-04-25T13:59:47;11.20;91.00
33717;DHT22;20046;50.746;7.072;2023-04-25T14:02:12;11.30;91.60
33717;DHT22;20046;50.746;7.072;2023-04-25T14:04:38;11.30;90.90
33717;DHT22;20046;50.746;7.072;2023-04-25T14:07:04;11.50;91.40
33717;DHT22;20046;50.746;7.072;2023-04-25T14:09:30;11.60;91.00
33717;DHT22;20046;50.746;7.072;2023-04-25T14:11:55;11.60;90.60
33717;DHT22;20046;50.746;7.072;2023-04-25T14:14:21;11.70;91.10
33717;DHT22;20046;50.746;7.072;2023-04-25T14:16:47;11.70;90.60
33717;DHT22;20046;50.746;7.072;2023-04-25T14:19:13;11.80;91.30
33717;DHT22;20046;50.746;7.072;2023-04-25T14:21:39;11.90;90.80
33717;DHT22;20046;50.746;7.072;2023-04-25T14:24:04;12.00;91.20
33717;DHT22;20046;50.746;7.072;2023-04-25T14:26:30;12.10;90.50
33717;DHT22;20046;50.746;7.072;2023-04-25T14:28:56;12.20;90.70
33717;DHT22;20046;50.746;7.072;2023-04-25T14:31:21;12.30;91.30
33717;DHT22;20046;50.746;7.072;2023-04-25T14:33:47;12.60;90.50
33717;DHT22;20046;50.746;7.072;2023-04-25T14:36:13;12.80;90.30
33717;DHT22;20046;50.746;7.072;2023-04-25T14:38:39;13.10;90.00
33717;DHT22;20046;50.746;7.072;2023-04-25T14:41:06;13.70;89.00
33717;DHT22;20046;50.746;7.072;2023-04-25T14:43:32;14.00;87.90
33717;DHT22;20046;50.746;7.072;2023-04-25T14:45:57;14.30;86.30
33717;DHT22;20046;50.746;7.072;2023-04-25T14:48:23;14.50;85.80
33717;DHT22;20046;50.746;7.072;2023-04-25T14:50:49;14.50;84.20
33717;DHT22;20046;50.746;7.072;2023-04-25T14:53:14;14.30;83.40
33717;DHT22;20046;50.746;7.072;2023-04-25T14:55:40;14.10;83.50
33717;DHT22;20046;50.746;7.072;2023-04-25T14:58:06;13.70;81.40
33717;DHT22;20046;50.746;7.072;2023-04-25T15:00:32;13.30;80.00
33717;DHT22;20046;50.746;7.072;2023-04-25T15:02:58;13.10;79.20
33717;DHT22;20046;50.746;7.072;2023-04-25T15:05:24;12.90;80.10
33717;DHT22;20046;50.746;7.072;2023-04-25T15:07:49;12.70;80.30
33717;DHT22;20046;50.746;7.072;2023-04-25T15:10:16;12.60;82.50
33717;DHT22;20046;50.746;7.072;2023-04-25T15:12:42;12.50;83.10
33717;DHT22;20046;50.746;7.072;2023-04-25T15:15:08;12.40;81.80
33717;DHT22;20046;50.746;7.072;2023-04-25T15:17:43;12.30;81.80
33717;DHT22;20046;50.746;7.072;2023-04-25T15:20:09;12.10;81.70
33717;DHT22;20046;50.746;7.072;2023-04-25T15:22:35;12.00;82.80
33717;DHT22;20046;50.746;7.072;2023-04-25T15:25:01;12.00;82.40
33717;DHT22;20046;50.746;7.072;2023-04-25T15:27:26;12.20;84.90
33717;DHT22;20046;50.746;7.072;2023-04-25T15:29:52;12.20;82.80
33717;DHT22;20046;50.746;7.072;2023-04-25T15:32:18;12.40;81.70
33717;DHT22;20046;50.746;7.072;2023-04-25T15:34:44;12.80;84.80
33717;DHT22;20046;50.746;7.072;2023-04-25T15:37:09;13.00;85.30
33717;DHT22;20046;50.746;7.072;2023-04-25T15:39:35;13.10;82.80
33717;DHT22;20046;50.746;7.072;2023-04-25T15:42:00;13.10;81.30